Terminal Aerodrome Forecast
Issued by NWS Knoxville/Tri Cities, TN

Home | Current Version | Previous Version | Text Only | Print | Product List | Glossary On
Versions: 1 2 3 4 5 6 7 8 9 10 11 12 13 14 15 16 17 18 19 20 21 22 23 24
000
FTUS44 KMRX 071720
TAFTRI
TAF
KTRI 071720Z 0718/0818 22005KT P6SM SKC
     FM080100 26004KT P6SM BKN250
     FM080600 VRB02KT P6SM BKN050 OVC100
     FM081200 00000KT 6SM -SN OVC050
     FM081500 21003KT 2SM -RA BR OVC010=

USA.gov is the U.S. government's official web portal to all federal, state and local government web resources and services.